Time;durP1;ratioP1;P1;durP2;ratioP2;P2;SDS_P1;SDS_P2;PMS_P1;PMS_P2;Temp;Humidity;BMP_temperature;BMP_pressure;BME280_temperature;BME280_humidity;BME280_pressure;Samples;Min_cycle;Max_cycle;Signal;HPM_P1;HPM_P2
2023/12/25 00:02:17;;;;;;;0.40;0.32;;;;;;;;;;5042881;28;20155;-90
2023/12/25 00:04:44;;;;;;;0.32;0.30;;;;;;;;;;5057317;28;20076;-90
2023/12/25 00:07:11;;;;;;;0.88;0.30;;;;;;;;;;5058288;28;20053;-89
2023/12/25 00:09:38;;;;;;;0.95;0.20;;;;;;;;;;5044314;28;20116;-90
2023/12/25 00:12:06;;;;;;;0.30;0.30;;;;;;;;;;5027758;28;20107;-89
2023/12/25 00:14:34;;;;;;;0.70;0.40;;;;;;;;;;5057292;28;20053;-89
2023/12/25 00:17:01;;;;;;;1.23;0.40;;;;;;;;;;5057660;28;20045;-92
2023/12/25 00:19:28;;;;;;;0.10;0.10;;;;;;;;;;5059857;28;20497;-90
2023/12/25 00:21:58;;;;;;;1.00;0.40;;;;;;;;;;5044811;28;20049;-89
2023/12/25 00:24:25;;;;;;;0.47;0.20;;;;;;;;;;5057851;28;20044;-90
2023/12/25 00:26:52;;;;;;;0.40;0.30;;;;;;;;;;5057148;28;20053;-90
2023/12/25 00:29:19;;;;;;;0.20;0.20;;;;;;;;;;5059238;28;20080;-89
2023/12/25 00:31:47;;;;;;;1.70;0.30;;;;;;;;;;5044249;28;20051;-89
2023/12/25 00:34:15;;;;;;;0.95;0.20;;;;;;;;;;5042278;28;20049;-88
2023/12/25 00:36:42;;;;;;;0.57;0.40;;;;;;;;;;5040552;28;20054;-88
2023/12/25 00:39:10;;;;;;;0.93;0.40;;;;;;;;;;5032793;28;20075;-89
2023/12/25 00:41:37;;;;;;;0.25;0.22;;;;;;;;;;5044226;28;20045;-88
2023/12/25 00:44:04;;;;;;;2.10;0.30;;;;;;;;;;5043914;28;20049;-90
2023/12/25 00:46:31;;;;;;;2.03;0.40;;;;;;;;;;5032782;28;20125;-89
2023/12/25 00:48:58;;;;;;;1.90;0.30;;;;;;;;;;5057081;28;20049;-89
2023/12/25 00:51:26;;;;;;;0.43;0.20;;;;;;;;;;5059792;28;20063;-88
2023/12/25 00:53:54;;;;;;;0.88;0.40;;;;;;;;;;5030435;28;20141;-88
2023/12/25 00:56:21;;;;;;;1.58;0.55;;;;;;;;;;5039252;28;20040;-88
2023/12/25 00:58:49;;;;;;;1.55;0.40;;;;;;;;;;5057061;28;20148;-88
2023/12/25 01:01:16;;;;;;;1.25;0.70;;;;;;;;;;5038963;28;20508;-91
2023/12/25 01:03:43;;;;;;;1.85;0.50;;;;;;;;;;5025500;28;20072;-89
2023/12/25 01:06:10;;;;;;;2.30;0.43;;;;;;;;;;5040844;28;20049;-90
2023/12/25 01:08:37;;;;;;;2.15;0.50;;;;;;;;;;5044354;28;20083;-88
2023/12/25 01:11:06;;;;;;;0.70;0.55;;;;;;;;;;5047646;28;20041;-88
2023/12/25 01:13:33;;;;;;;3.40;0.70;;;;;;;;;;5048072;28;20474;-88
2023/12/25 01:16:00;;;;;;;2.70;0.60;;;;;;;;;;5047618;28;20119;-89
2023/12/25 01:18:27;;;;;;;0.55;0.30;;;;;;;;;;5043688;28;20062;-89
2023/12/25 01:20:54;;;;;;;2.60;0.50;;;;;;;;;;5060396;28;20057;-89
2023/12/25 01:23:22;;;;;;;1.38;0.43;;;;;;;;;;5062574;28;20084;-89
2023/12/25 01:25:49;;;;;;;1.52;0.30;;;;;;;;;;5046968;28;20045;-88
2023/12/25 01:28:17;;;;;;;3.28;0.60;;;;;;;;;;5045788;28;20053;-89
2023/12/25 01:30:44;;;;;;;0.82;0.35;;;;;;;;;;5043726;28;20100;-90
2023/12/25 01:33:11;;;;;;;0.50;0.40;;;;;;;;;;5043047;28;20053;-90
2023/12/25 01:35:39;;;;;;;1.15;0.20;;;;;;;;;;5060063;28;20049;-89
2023/12/25 01:38:06;;;;;;;0.25;0.25;;;;;;;;;;5063291;28;20512;-88
2023/12/25 01:40:33;;;;;;;0.32;0.30;;;;;;;;;;5058687;28;20057;-88
2023/12/25 01:43:00;;;;;;;0.20;0.20;;;;;;;;;;5046640;28;20049;-88
2023/12/25 01:45:27;;;;;;;1.13;0.30;;;;;;;;;;5043867;28;20050;-90
2023/12/25 01:47:55;;;;;;;0.70;0.45;;;;;;;;;;5059569;28;20103;-91
2023/12/25 01:50:22;;;;;;;1.58;0.30;;;;;;;;;;5062015;28;20049;-87
2023/12/25 01:52:50;;;;;;;0.88;0.32;;;;;;;;;;5046172;28;20480;-90
2023/12/25 01:55:18;;;;;;;0.73;0.20;;;;;;;;;;5045181;28;20102;-89
2023/12/25 01:57:45;;;;;;;0.82;0.25;;;;;;;;;;5043060;28;20464;-89
2023/12/25 02:00:13;;;;;;;0.60;0.40;;;;;;;;;;5043804;28;20045;-88
2023/12/25 02:02:43;;;;;;;0.20;0.20;;;;;;;;;;5046348;28;20061;-90
2023/12/25 02:05:10;;;;;;;0.05;0.05;;;;;;;;;;5045604;28;20059;-92
2023/12/25 02:07:42;;;;;;;0.75;0.20;;;;;;;;;;5059395;28;20457;-90
2023/12/25 02:10:10;;;;;;;1.80;0.30;;;;;;;;;;5060108;28;20057;-89
2023/12/25 02:12:37;;;;;;;1.25;0.17;;;;;;;;;;5045842;28;20387;-88
2023/12/25 02:15:05;;;;;;;0.45;0.15;;;;;;;;;;5046215;28;20087;-89
2023/12/25 02:17:32;;;;;;;0.88;0.10;;;;;;;;;;5050971;28;20049;-89
2023/12/25 02:20:00;;;;;;;0.65;0.28;;;;;;;;;;5058569;28;20410;-89
2023/12/25 02:22:27;;;;;;;0.25;0.13;;;;;;;;;;5058911;28;20049;-89
2023/12/25 02:25:08;;;;;;;0.20;0.10;;;;;;;;;;5059181;28;20087;-91
2023/12/25 02:27:35;;;;;;;0.10;0.10;;;;;;;;;;5034958;28;20471;-90
2023/12/25 02:30:03;;;;;;;1.23;0.15;;;;;;;;;;5042716;28;20100;-89
2023/12/25 02:32:30;;;;;;;0.30;0.00;;;;;;;;;;5062138;28;20057;-89
2023/12/25 02:34:58;;;;;;;0.28;0.13;;;;;;;;;;5046006;28;20059;-90
2023/12/25 02:37:25;;;;;;;0.20;0.10;;;;;;;;;;5043272;28;20045;-89
2023/12/25 02:39:52;;;;;;;0.20;0.10;;;;;;;;;;5058831;28;20056;-89
2023/12/25 02:42:19;;;;;;;0.15;0.10;;;;;;;;;;5060648;28;20084;-88
2023/12/25 02:44:46;;;;;;;0.55;0.10;;;;;;;;;;5045611;28;20053;-89
2023/12/25 02:47:14;;;;;;;1.48;0.40;;;;;;;;;;5044575;28;20048;-88
2023/12/25 02:49:41;;;;;;;0.15;0.10;;;;;;;;;;5058572;28;20049;-87
2023/12/25 02:52:08;;;;;;;0.65;0.13;;;;;;;;;;5059307;28;20053;-88
2023/12/25 02:54:35;;;;;;;0.00;0.00;;;;;;;;;;5058408;28;20079;-89
2023/12/25 02:57:03;;;;;;;0.35;0.20;;;;;;;;;;5048450;28;20072;-89
2023/12/25 02:59:30;;;;;;;0.22;0.20;;;;;;;;;;5041894;28;20046;-89
2023/12/25 03:01:57;;;;;;;0.10;0.10;;;;;;;;;;5057397;28;20087;-88
2023/12/25 03:04:25;;;;;;;0.50;0.20;;;;;;;;;;5042472;28;20579;-89
2023/12/25 03:06:52;;;;;;;0.10;0.10;;;;;;;;;;5058114;28;20387;-89
2023/12/25 03:09:19;;;;;;;0.88;0.10;;;;;;;;;;5060111;28;20520;-89
2023/12/25 03:11:46;;;;;;;1.73;0.17;;;;;;;;;;5045406;28;20493;-89
2023/12/25 03:14:14;;;;;;;0.55;0.10;;;;;;;;;;5043925;28;20052;-90
2023/12/25 03:16:41;;;;;;;0.38;0.10;;;;;;;;;;5058233;28;20091;-90
2023/12/25 03:19:08;;;;;;;0.10;0.10;;;;;;;;;;5058260;28;20085;-88
2023/12/25 03:21:36;;;;;;;0.20;0.10;;;;;;;;;;5044947;28;20049;-90
2023/12/25 03:24:03;;;;;;;0.70;0.25;;;;;;;;;;5044830;28;20060;-89
2023/12/25 03:26:32;;;;;;;0.08;0.08;;;;;;;;;;5033481;28;20065;-89
2023/12/25 03:28:59;;;;;;;0.30;0.10;;;;;;;;;;5057203;28;20045;-89
2023/12/25 03:31:26;;;;;;;0.75;0.10;;;;;;;;;;5041672;28;20502;-89
2023/12/25 03:33:53;;;;;;;1.02;0.13;;;;;;;;;;5054912;28;20052;-89
2023/12/25 03:36:21;;;;;;;0.45;0.10;;;;;;;;;;5042351;28;20073;-90
2023/12/25 03:38:48;;;;;;;1.65;0.20;;;;;;;;;;5057793;28;20057;-90
2023/12/25 03:41:16;;;;;;;0.00;0.00;;;;;;;;;;5042574;28;20047;-89
2023/12/25 03:43:43;;;;;;;0.20;0.20;;;;;;;;;;5044409;28;20413;-90
2023/12/25 03:46:10;;;;;;;0.10;0.10;;;;;;;;;;5043999;28;20052;-90
2023/12/25 03:48:37;;;;;;;0.30;0.30;;;;;;;;;;5057432;28;20076;-90
2023/12/25 03:51:05;;;;;;;0.10;0.10;;;;;;;;;;5057492;28;20053;-89
2023/12/25 03:53:32;;;;;;;0.40;0.08;;;;;;;;;;5053352;28;20536;-89
2023/12/25 03:56:03;;;;;;;0.00;0.00;;;;;;;;;;5036060;28;20456;-89
2023/12/25 03:58:30;;;;;;;0.20;0.13;;;;;;;;;;5041027;28;20045;-89
2023/12/25 04:00:57;;;;;;;0.20;0.20;;;;;;;;;;5040768;28;20050;-89
2023/12/25 04:03:25;;;;;;;0.00;0.00;;;;;;;;;;5043171;28;20144;-91
2023/12/25 04:05:52;;;;;;;0.52;0.20;;;;;;;;;;5044391;28;20051;-89
2023/12/25 04:08:19;;;;;;;0.30;0.20;;;;;;;;;;5029005;28;20494;-88
2023/12/25 04:10:47;;;;;;;0.00;0.00;;;;;;;;;;5058244;28;20061;-89
2023/12/25 04:13:14;;;;;;;0.65;0.25;;;;;;;;;;5026540;28;20049;-89
2023/12/25 04:15:41;;;;;;;0.05;0.05;;;;;;;;;;5040448;28;20490;-89
2023/12/25 04:18:08;;;;;;;0.10;0.10;;;;;;;;;;5057317;28;20085;-89
2023/12/25 04:20:36;;;;;;;0.00;0.00;;;;;;;;;;5044113;28;20049;-88
2023/12/25 04:23:03;;;;;;;0.10;0.10;;;;;;;;;;5035947;28;20137;-88
2023/12/25 04:25:30;;;;;;;0.00;0.00;;;;;;;;;;5043926;28;20060;-87
2023/12/25 04:27:57;;;;;;;0.13;0.05;;;;;;;;;;5044219;28;20045;-89
2023/12/25 04:30:25;;;;;;;0.00;0.00;;;;;;;;;;5041136;28;20052;-89
2023/12/25 04:32:52;;;;;;;1.33;0.00;;;;;;;;;;5057111;28;20486;-88
2023/12/25 04:35:19;;;;;;;0.20;0.08;;;;;;;;;;5058698;28;20069;-89
2023/12/25 04:37:47;;;;;;;0.00;0.00;;;;;;;;;;5038366;28;20064;-89
2023/12/25 04:40:14;;;;;;;0.10;0.00;;;;;;;;;;5058176;28;20053;-87
2023/12/25 04:42:41;;;;;;;0.25;0.00;;;;;;;;;;5044488;28;20053;-89
2023/12/25 04:45:08;;;;;;;0.10;0.00;;;;;;;;;;5046489;28;20044;-89
2023/12/25 04:47:36;;;;;;;0.85;0.00;;;;;;;;;;5056808;28;20418;-88
2023/12/25 04:50:03;;;;;;;0.50;0.00;;;;;;;;;;5040364;28;20056;-88
2023/12/25 04:52:31;;;;;;;0.00;0.00;;;;;;;;;;5036048;28;20053;-89
2023/12/25 04:54:58;;;;;;;0.80;0.00;;;;;;;;;;5060565;28;20049;-88
2023/12/25 04:57:25;;;;;;;0.00;0.00;;;;;;;;;;5046738;28;20064;-88
2023/12/25 04:59:52;;;;;;;0.00;0.00;;;;;;;;;;5047732;28;20130;-89
2023/12/25 05:02:20;;;;;;;0.90;0.00;;;;;;;;;;5038994;28;20456;-89
2023/12/25 05:04:47;;;;;;;0.05;0.00;;;;;;;;;;5033586;28;20049;-88
2023/12/25 05:07:14;;;;;;;0.10;0.00;;;;;;;;;;5061730;28;20461;-88
2023/12/25 05:09:42;;;;;;;0.13;0.00;;;;;;;;;;5047381;28;20061;-89
2023/12/25 05:12:09;;;;;;;0.00;0.00;;;;;;;;;;5046630;28;20075;-89
2023/12/25 05:14:36;;;;;;;0.00;0.00;;;;;;;;;;5060225;28;20050;-89
2023/12/25 05:17:03;;;;;;;0.00;0.00;;;;;;;;;;5060611;28;20045;-92
2023/12/25 05:19:30;;;;;;;0.22;0.10;;;;;;;;;;5051816;28;20417;-89
2023/12/25 05:21:58;;;;;;;0.20;0.05;;;;;;;;;;5060649;28;20049;-89
2023/12/25 05:24:25;;;;;;;0.00;0.00;;;;;;;;;;5069441;28;20041;-88
2023/12/25 05:26:52;;;;;;;0.10;0.10;;;;;;;;;;5056550;28;20045;-90
2023/12/25 05:29:20;;;;;;;0.00;0.00;;;;;;;;;;5045267;28;20080;-88
2023/12/25 05:31:47;;;;;;;0.00;0.00;;;;;;;;;;5060131;28;20053;-90
2023/12/25 05:34:14;;;;;;;0.03;0.00;;;;;;;;;;5061217;28;20072;-90
2023/12/25 05:36:42;;;;;;;0.05;0.00;;;;;;;;;;5046702;28;20052;-90
2023/12/25 05:39:09;;;;;;;0.00;0.00;;;;;;;;;;5030670;28;20087;-91
2023/12/25 05:41:41;;;;;;;0.10;0.10;;;;;;;;;;5047128;28;20065;-90
2023/12/25 05:44:08;;;;;;;0.00;0.00;;;;;;;;;;5046422;28;20068;-89
2023/12/25 05:46:36;;;;;;;0.25;0.00;;;;;;;;;;5051921;28;20049;-90
2023/12/25 05:49:04;;;;;;;0.20;0.10;;;;;;;;;;5059937;28;20054;-90
2023/12/25 05:51:31;;;;;;;1.17;0.00;;;;;;;;;;5051433;28;20057;-89
2023/12/25 05:53:58;;;;;;;0.00;0.00;;;;;;;;;;5043850;28;20407;-89
2023/12/25 05:56:26;;;;;;;0.40;0.00;;;;;;;;;;5041347;28;20061;-90
2023/12/25 05:58:53;;;;;;;0.00;0.00;;;;;;;;;;5059689;28;20045;-91
2023/12/25 06:01:20;;;;;;;0.00;0.00;;;;;;;;;;5061578;28;20080;-89
2023/12/25 06:03:49;;;;;;;2.10;0.00;;;;;;;;;;5046242;28;20108;-90
2023/12/25 06:06:17;;;;;;;0.10;0.00;;;;;;;;;;5038011;28;20049;-91
2023/12/25 06:08:45;;;;;;;0.35;0.35;;;;;;;;;;5046122;28;20053;-90
2023/12/25 06:11:12;;;;;;;0.80;0.10;;;;;;;;;;5045648;28;20099;-91
2023/12/25 06:13:39;;;;;;;0.52;0.10;;;;;;;;;;5042818;28;20057;-90
2023/12/25 06:16:06;;;;;;;0.00;0.00;;;;;;;;;;5059695;28;20461;-91
2023/12/25 06:18:33;;;;;;;0.00;0.00;;;;;;;;;;5038601;28;20049;-90
2023/12/25 06:21:01;;;;;;;0.03;0.03;;;;;;;;;;5022356;28;20152;-89
2023/12/25 06:23:28;;;;;;;0.17;0.08;;;;;;;;;;5062584;28;20103;-88
2023/12/25 06:25:55;;;;;;;0.52;0.10;;;;;;;;;;5047972;28;20049;-90
2023/12/25 06:28:23;;;;;;;0.00;0.00;;;;;;;;;;5059357;28;20108;-90
2023/12/25 06:30:51;;;;;;;0.20;0.03;;;;;;;;;;5042832;28;20103;-89
2023/12/25 06:33:19;;;;;;;0.25;0.00;;;;;;;;;;5044148;28;20064;-90
2023/12/25 06:35:47;;;;;;;0.35;0.00;;;;;;;;;;5045891;28;20053;-89
2023/12/25 06:38:14;;;;;;;0.00;0.00;;;;;;;;;;5045225;28;20045;-90
2023/12/25 06:40:41;;;;;;;0.00;0.00;;;;;;;;;;5075048;28;20049;-90
2023/12/25 06:43:09;;;;;;;0.00;0.00;;;;;;;;;;5043161;28;20099;-89
2023/12/25 06:45:36;;;;;;;0.80;0.05;;;;;;;;;;5033213;28;20076;-89
2023/12/25 06:48:03;;;;;;;0.00;0.00;;;;;;;;;;5058694;28;20046;-92
2023/12/25 06:50:31;;;;;;;1.15;0.10;;;;;;;;;;5058765;28;20129;-89
2023/12/25 06:52:58;;;;;;;0.10;0.00;;;;;;;;;;5055772;28;20061;-89
2023/12/25 06:55:25;;;;;;;0.05;0.00;;;;;;;;;;5039915;28;20048;-89
2023/12/25 06:57:53;;;;;;;0.08;0.08;;;;;;;;;;5036173;28;20069;-89
2023/12/25 07:00:21;;;;;;;0.10;0.00;;;;;;;;;;5043506;28;20409;-88
2023/12/25 07:02:48;;;;;;;0.10;0.10;;;;;;;;;;5058176;28;20409;-88
2023/12/25 07:05:15;;;;;;;0.30;0.10;;;;;;;;;;5059220;28;20053;-88
2023/12/25 07:07:45;;;;;;;0.65;0.00;;;;;;;;;;5045232;28;20049;-89
2023/12/25 07:10:12;;;;;;;0.08;0.08;;;;;;;;;;5044397;28;20072;-89
2023/12/25 07:12:40;;;;;;;0.20;0.10;;;;;;;;;;5058151;28;20053;-89
2023/12/25 07:15:07;;;;;;;0.35;0.10;;;;;;;;;;5058269;28;20057;-89
2023/12/25 07:17:34;;;;;;;0.00;0.00;;;;;;;;;;5044933;28;20489;-89
2023/12/25 07:20:02;;;;;;;0.00;0.00;;;;;;;;;;5045168;28;20606;-90
2023/12/25 07:22:29;;;;;;;0.00;0.00;;;;;;;;;;5041675;28;20057;-89
2023/12/25 07:25:04;;;;;;;0.00;0.00;;;;;;;;;;5025318;28;20140;-87
2023/12/25 07:27:32;;;;;;;0.13;0.13;;;;;;;;;;5050107;28;20049;-88
2023/12/25 07:29:59;;;;;;;0.00;0.00;;;;;;;;;;5057852;28;20069;-87
2023/12/25 07:32:28;;;;;;;0.20;0.20;;;;;;;;;;5038257;28;20050;-89
2023/12/25 07:34:56;;;;;;;0.03;0.03;;;;;;;;;;5035149;28;20052;-89
2023/12/25 07:37:23;;;;;;;0.85;0.30;;;;;;;;;;5042299;28;20493;-89
2023/12/25 07:39:50;;;;;;;0.20;0.20;;;;;;;;;;5057542;28;20072;-89
2023/12/25 07:42:17;;;;;;;2.35;1.60;;;;;;;;;;5056079;28;20049;-89
2023/12/25 07:44:44;;;;;;;0.85;0.80;;;;;;;;;;5031913;28;20048;-89
2023/12/25 07:47:12;;;;;;;18.77;10.07;;;;;;;;;;5043755;28;20061;-88
2023/12/25 07:49:39;;;;;;;13.68;10.25;;;;;;;;;;5053160;28;20050;-88
2023/12/25 07:52:07;;;;;;;23.27;10.25;;;;;;;;;;5037983;28;20480;-89
2023/12/25 07:54:34;;;;;;;11.88;7.53;;;;;;;;;;5061698;28;20091;-89
2023/12/25 07:57:01;;;;;;;6.53;5.53;;;;;;;;;;5069201;28;20054;-89
2023/12/25 07:59:28;;;;;;;0.70;0.70;;;;;;;;;;5048981;28;20057;-87
2023/12/25 08:01:55;;;;;;;0.30;0.30;;;;;;;;;;5057335;28;20050;-88
2023/12/25 08:04:23;;;;;;;0.47;0.30;;;;;;;;;;5059452;28;20065;-87
2023/12/25 08:06:51;;;;;;;0.10;0.10;;;;;;;;;;5044356;28;20044;-87
2023/12/25 08:09:18;;;;;;;0.10;0.10;;;;;;;;;;5042465;28;20052;-88
2023/12/25 08:11:45;;;;;;;0.30;0.08;;;;;;;;;;5057139;28;20406;-88
2023/12/25 08:14:12;;;;;;;0.30;0.00;;;;;;;;;;5065288;28;20112;-89
2023/12/25 08:16:40;;;;;;;0.30;0.10;;;;;;;;;;5057284;28;20455;-88
2023/12/25 08:19:07;;;;;;;0.10;0.10;;;;;;;;;;5056979;28;20053;-88
2023/12/25 08:21:35;;;;;;;0.13;0.00;;;;;;;;;;5044760;28;20064;-88
2023/12/25 08:24:02;;;;;;;0.20;0.10;;;;;;;;;;5036515;28;20406;-88
2023/12/25 08:26:29;;;;;;;0.00;0.00;;;;;;;;;;5043899;28;20452;-89
2023/12/25 08:28:57;;;;;;;0.10;0.00;;;;;;;;;;5044394;28;20076;-88
2023/12/25 08:31:24;;;;;;;0.98;0.10;;;;;;;;;;5041965;28;20102;-89
2023/12/25 08:33:51;;;;;;;0.17;0.03;;;;;;;;;;5057467;28;20058;-89
2023/12/25 08:36:19;;;;;;;0.25;0.15;;;;;;;;;;5059508;28;20049;-89
2023/12/25 08:38:46;;;;;;;2.40;2.30;;;;;;;;;;5044010;28;20095;-89
2023/12/25 08:41:13;;;;;;;1.20;0.10;;;;;;;;;;5043593;28;20060;-88
2023/12/25 08:43:41;;;;;;;0.17;0.10;;;;;;;;;;5057581;28;20465;-89
2023/12/25 08:46:16;;;;;;;0.10;0.10;;;;;;;;;;5058228;28;20482;-87
2023/12/25 08:48:44;;;;;;;0.08;0.08;;;;;;;;;;5044696;28;20099;-89
2023/12/25 08:51:11;;;;;;;0.47;0.00;;;;;;;;;;5045134;28;20460;-88
2023/12/25 08:53:38;;;;;;;0.10;0.00;;;;;;;;;;5058084;28;20050;-88
2023/12/25 08:56:06;;;;;;;1.00;0.20;;;;;;;;;;5057311;28;20053;-88
2023/12/25 08:58:33;;;;;;;0.10;0.10;;;;;;;;;;5033530;28;20096;-88
2023/12/25 09:01:00;;;;;;;0.10;0.10;;;;;;;;;;5057773;28;20088;-89
2023/12/25 09:03:28;;;;;;;0.10;0.00;;;;;;;;;;5066048;28;20050;-89
2023/12/25 09:05:55;;;;;;;2.05;0.10;;;;;;;;;;5050756;28;20050;-89
2023/12/25 09:08:23;;;;;;;0.03;0.00;;;;;;;;;;5033274;28;20057;-88
2023/12/25 09:10:51;;;;;;;0.03;0.03;;;;;;;;;;5065729;28;20058;-88
2023/12/25 09:13:18;;;;;;;2.17;0.10;;;;;;;;;;5058426;28;20521;-89
2023/12/25 09:15:45;;;;;;;0.05;0.05;;;;;;;;;;5033404;28;20045;-89
2023/12/25 09:18:13;;;;;;;0.10;0.10;;;;;;;;;;5037388;28;20114;-89
2023/12/25 09:20:40;;;;;;;1.35;0.10;;;;;;;;;;5056752;28;20053;-88
2023/12/25 09:23:07;;;;;;;0.00;0.00;;;;;;;;;;5056697;28;20049;-89
2023/12/25 09:25:34;;;;;;;0.55;0.10;;;;;;;;;;5043365;28;20049;-88
2023/12/25 09:28:04;;;;;;;0.00;0.00;;;;;;;;;;5043919;28;20494;-89
2023/12/25 09:30:31;;;;;;;0.10;0.00;;;;;;;;;;5051201;28;20103;-91
2023/12/25 09:32:59;;;;;;;0.95;0.00;;;;;;;;;;5043586;28;20140;-89
2023/12/25 09:35:26;;;;;;;0.10;0.10;;;;;;;;;;5062605;28;20076;-90
2023/12/25 09:37:53;;;;;;;0.47;0.00;;;;;;;;;;5047022;28;20486;-89
2023/12/25 09:40:21;;;;;;;0.63;0.20;;;;;;;;;;5038891;28;20132;-87
2023/12/25 09:42:50;;;;;;;0.00;0.00;;;;;;;;;;5046892;28;20072;-88
2023/12/25 09:45:17;;;;;;;0.00;0.00;;;;;;;;;;5048542;28;20054;-89
2023/12/25 09:47:45;;;;;;;2.95;0.03;;;;;;;;;;5047359;28;20053;-88
2023/12/25 09:50:14;;;;;;;1.08;0.17;;;;;;;;;;5046700;28;20139;-89
2023/12/25 09:52:41;;;;;;;0.10;0.10;;;;;;;;;;5061569;28;20096;-89
2023/12/25 09:55:08;;;;;;;0.20;0.20;;;;;;;;;;5061105;28;20104;-88
2023/12/25 09:57:36;;;;;;;1.00;0.10;;;;;;;;;;5047925;28;20045;-88
2023/12/25 10:00:05;;;;;;;0.00;0.00;;;;;;;;;;5048157;28;20049;-89
2023/12/25 10:02:35;;;;;;;0.00;0.00;;;;;;;;;;5019183;28;20059;-88
2023/12/25 10:05:02;;;;;;;0.00;0.00;;;;;;;;;;5043341;28;20401;-90
2023/12/25 10:07:30;;;;;;;0.10;0.10;;;;;;;;;;5044002;28;20103;-89
2023/12/25 10:09:58;;;;;;;0.10;0.10;;;;;;;;;;5060378;28;20049;-91
2023/12/25 10:12:25;;;;;;;0.13;0.13;;;;;;;;;;5063004;28;20538;-89
2023/12/25 10:14:53;;;;;;;0.20;0.20;;;;;;;;;;5046525;28;20552;-92
2023/12/25 10:17:20;;;;;;;0.08;0.08;;;;;;;;;;5045244;28;20063;-93
2023/12/25 10:19:51;;;;;;;1.05;0.70;;;;;;;;;;5043817;28;20054;-89
2023/12/25 10:22:29;;;;;;;0.45;0.20;;;;;;;;;;5034352;28;20054;-88
2023/12/25 10:25:06;;;;;;;0.30;0.30;;;;;;;;;;5051256;28;20110;-90
2023/12/25 10:27:34;;;;;;;0.50;0.50;;;;;;;;;;5034853;28;20627;-88
2023/12/25 10:30:03;;;;;;;0.77;0.55;;;;;;;;;;5059481;28;20041;-89
2023/12/25 10:32:34;;;;;;;2.17;1.65;;;;;;;;;;5050905;28;20068;-88
2023/12/25 10:35:11;;;;;;;0.90;0.90;;;;;;;;;;5059956;28;20076;-89
2023/12/25 10:37:39;;;;;;;0.47;0.47;;;;;;;;;;5035470;28;20049;-89
2023/12/25 10:40:18;;;;;;;0.75;0.60;;;;;;;;;;5059242;28;20506;-87
2023/12/25 10:42:48;;;;;;;1.67;0.25;;;;;;;;;;5045420;28;20123;-89
2023/12/25 10:45:21;;;;;;;0.10;0.10;;;;;;;;;;5044834;28;20107;-89
2023/12/25 10:47:50;;;;;;;0.30;0.30;;;;;;;;;;5058767;28;20045;-90
2023/12/25 10:50:20;;;;;;;0.40;0.40;;;;;;;;;;5043982;28;20050;-88
2023/12/25 10:52:50;;;;;;;0.10;0.10;;;;;;;;;;5045480;28;20045;-89
2023/12/25 10:55:38;;;;;;;0.00;0.00;;;;;;;;;;5044327;28;20531;-90
2023/12/25 10:58:07;;;;;;;0.20;0.10;;;;;;;;;;5035436;28;20100;-88
2023/12/25 11:00:36;;;;;;;0.10;0.00;;;;;;;;;;5050463;28;20045;-88
2023/12/25 11:03:04;;;;;;;1.10;0.00;;;;;;;;;;5050280;28;20507;-88
2023/12/25 11:05:32;;;;;;;0.10;0.05;;;;;;;;;;5050346;28;20056;-88
2023/12/25 11:07:59;;;;;;;0.00;0.00;;;;;;;;;;5051147;28;20099;-90
2023/12/25 11:10:27;;;;;;;0.10;0.00;;;;;;;;;;5041214;28;20099;-89
2023/12/25 11:12:55;;;;;;;0.10;0.10;;;;;;;;;;5041768;28;20063;-89
2023/12/25 11:15:23;;;;;;;0.60;0.10;;;;;;;;;;5060529;28;20042;-89
2023/12/25 11:17:51;;;;;;;0.10;0.10;;;;;;;;;;5045072;28;20056;-89
2023/12/25 11:20:19;;;;;;;0.10;0.10;;;;;;;;;;5043334;28;20374;-90
2023/12/25 11:22:47;;;;;;;0.08;0.08;;;;;;;;;;5057958;28;20486;-90
2023/12/25 11:25:15;;;;;;;0.00;0.00;;;;;;;;;;5057071;28;20053;-91
2023/12/25 11:27:43;;;;;;;0.40;0.08;;;;;;;;;;5018819;28;20486;-89
2023/12/25 11:30:11;;;;;;;0.05;0.05;;;;;;;;;;5066928;28;20464;-89
2023/12/25 11:32:45;;;;;;;0.05;0.00;;;;;;;;;;5058821;28;20053;-90
2023/12/25 11:35:13;;;;;;;0.05;0.05;;;;;;;;;;5060600;28;20692;-90
2023/12/25 11:37:41;;;;;;;0.30;0.10;;;;;;;;;;5047190;28;20052;-88
2023/12/25 11:40:08;;;;;;;1.45;0.08;;;;;;;;;;5059420;28;20123;-89
2023/12/25 11:42:36;;;;;;;0.10;0.10;;;;;;;;;;5057782;28;20049;-89
2023/12/25 11:45:05;;;;;;;0.30;0.10;;;;;;;;;;5041196;28;20053;-90
2023/12/25 11:47:39;;;;;;;0.20;0.10;;;;;;;;;;5033510;28;20057;-89
2023/12/25 11:50:08;;;;;;;0.17;0.10;;;;;;;;;;5057943;28;20045;-88
2023/12/25 11:52:55;;;;;;;0.10;0.10;;;;;;;;;;5052998;28;20084;-89
2023/12/25 11:55:24;;;;;;;0.35;0.08;;;;;;;;;;5041804;28;20404;-89
2023/12/25 11:57:52;;;;;;;0.00;0.00;;;;;;;;;;5057950;28;20140;-88
2023/12/25 12:00:24;;;;;;;1.65;0.10;;;;;;;;;;5059322;28;20055;-89
2023/12/25 12:02:51;;;;;;;0.10;0.10;;;;;;;;;;5044139;28;20087;-90
2023/12/25 12:05:19;;;;;;;0.20;0.20;;;;;;;;;;5042232;28;20063;-90
2023/12/25 12:07:46;;;;;;;0.10;0.10;;;;;;;;;;5063190;28;20056;-88
2023/12/25 12:10:14;;;;;;;0.00;0.00;;;;;;;;;;5043103;28;20286;-89
2023/12/25 12:12:42;;;;;;;0.55;0.10;;;;;;;;;;5057409;28;20057;-88
2023/12/25 12:15:09;;;;;;;0.20;0.10;;;;;;;;;;5057494;28;20497;-89
2023/12/25 12:17:38;;;;;;;0.30;0.10;;;;;;;;;;5040537;28;20060;-88
2023/12/25 12:20:06;;;;;;;0.10;0.10;;;;;;;;;;5057795;28;20132;-88
2023/12/25 12:22:34;;;;;;;0.35;0.10;;;;;;;;;;5033062;28;20456;-89
2023/12/25 12:25:20;;;;;;;0.10;0.10;;;;;;;;;;5050035;28;20042;-89
2023/12/25 12:27:47;;;;;;;0.20;0.20;;;;;;;;;;5032050;28;20110;-88
2023/12/25 12:30:16;;;;;;;0.00;0.00;;;;;;;;;;5042836;28;20056;-88
2023/12/25 12:32:44;;;;;;;0.00;0.00;;;;;;;;;;5057076;28;20049;-89
2023/12/25 12:35:11;;;;;;;0.10;0.10;;;;;;;;;;5057801;28;20060;-89
2023/12/25 12:37:39;;;;;;;0.10;0.00;;;;;;;;;;5043987;28;20559;-88
2023/12/25 12:40:06;;;;;;;0.10;0.10;;;;;;;;;;5044053;28;20095;-89
2023/12/25 12:42:34;;;;;;;0.10;0.00;;;;;;;;;;5036573;28;20149;-89
2023/12/25 12:45:02;;;;;;;0.10;0.10;;;;;;;;;;5045015;28;20115;-89
2023/12/25 12:47:30;;;;;;;0.15;0.15;;;;;;;;;;5041030;28;20053;-88
2023/12/25 12:49:58;;;;;;;0.52;0.20;;;;;;;;;;5057334;28;20103;-89
2023/12/25 12:52:26;;;;;;;0.90;0.90;;;;;;;;;;5062050;28;20050;-89
2023/12/25 12:54:53;;;;;;;0.30;0.25;;;;;;;;;;5062656;28;20033;-89
2023/12/25 12:57:21;;;;;;;0.10;0.10;;;;;;;;;;5049084;28;20049;-90
2023/12/25 12:59:49;;;;;;;0.00;0.00;;;;;;;;;;5057442;28;20041;-87
2023/12/25 13:02:16;;;;;;;1.88;0.10;;;;;;;;;;5059282;28;20084;-88
2023/12/25 13:04:43;;;;;;;0.00;0.00;;;;;;;;;;5040059;28;20064;-88
2023/12/25 13:07:11;;;;;;;0.30;0.30;;;;;;;;;;5060304;28;20049;-89
2023/12/25 13:09:38;;;;;;;0.20;0.15;;;;;;;;;;5032596;28;20049;-92
2023/12/25 13:12:05;;;;;;;0.57;0.55;;;;;;;;;;5048341;28;20048;-89
2023/12/25 13:14:33;;;;;;;0.30;0.30;;;;;;;;;;5052384;28;20057;-86
2023/12/25 13:17:00;;;;;;;0.08;0.08;;;;;;;;;;5061258;28;20049;-89
2023/12/25 13:19:27;;;;;;;0.05;0.05;;;;;;;;;;5063399;28;20052;-90
2023/12/25 13:21:55;;;;;;;0.20;0.20;;;;;;;;;;5047654;28;20123;-89
2023/12/25 13:24:22;;;;;;;0.00;0.00;;;;;;;;;;5039549;28;20054;-88
2023/12/25 13:26:49;;;;;;;0.17;0.17;;;;;;;;;;5047520;28;20551;-89
2023/12/25 13:29:17;;;;;;;0.20;0.20;;;;;;;;;;5046109;28;20481;-91
2023/12/25 13:31:44;;;;;;;0.10;0.10;;;;;;;;;;5044970;28;20072;-88
2023/12/25 13:34:11;;;;;;;0.00;0.00;;;;;;;;;;5043776;28;20053;-89
2023/12/25 13:36:39;;;;;;;0.55;0.15;;;;;;;;;;5033187;28;20076;-89
2023/12/25 13:39:07;;;;;;;0.10;0.10;;;;;;;;;;5039797;28;20072;-88
2023/12/25 13:41:36;;;;;;;0.63;0.63;;;;;;;;;;5039959;28;20410;-89
2023/12/25 13:44:05;;;;;;;0.30;0.30;;;;;;;;;;5039749;28;20053;-88
2023/12/25 13:46:33;;;;;;;0.10;0.10;;;;;;;;;;5035977;28;20413;-89
2023/12/25 13:49:00;;;;;;;0.00;0.00;;;;;;;;;;5060065;28;20050;-89
2023/12/25 13:51:27;;;;;;;0.10;0.10;;;;;;;;;;5062726;28;20144;-89
2023/12/25 13:53:55;;;;;;;0.10;0.00;;;;;;;;;;5046877;28;20063;-89
2023/12/25 13:56:25;;;;;;;0.10;0.00;;;;;;;;;;5044448;28;20044;-88
2023/12/25 13:58:52;;;;;;;0.00;0.00;;;;;;;;;;5043888;28;20045;-91
2023/12/25 14:01:19;;;;;;;0.00;0.00;;;;;;;;;;5043430;28;20110;-91
2023/12/25 14:03:47;;;;;;;1.40;0.20;;;;;;;;;;5053917;28;20108;-88
2023/12/25 14:06:19;;;;;;;0.10;0.10;;;;;;;;;;5043882;28;20049;-91
2023/12/25 14:08:47;;;;;;;0.00;0.00;;;;;;;;;;5056872;28;20045;-88
2023/12/25 14:11:14;;;;;;;0.30;0.30;;;;;;;;;;5051499;28;20111;-91
2023/12/25 14:13:41;;;;;;;0.32;0.10;;;;;;;;;;5059306;28;20053;-89
2023/12/25 14:16:10;;;;;;;0.10;0.10;;;;;;;;;;5059372;28;20076;-88
2023/12/25 14:18:38;;;;;;;0.00;0.00;;;;;;;;;;5045652;28;20390;-89
2023/12/25 14:21:05;;;;;;;0.17;0.05;;;;;;;;;;5046421;28;20057;-88
2023/12/25 14:23:33;;;;;;;0.10;0.10;;;;;;;;;;5034454;28;20057;-88
2023/12/25 14:26:00;;;;;;;0.32;0.10;;;;;;;;;;5059320;28;20410;-87
2023/12/25 14:28:27;;;;;;;0.17;0.17;;;;;;;;;;5059349;28;20540;-89
2023/12/25 14:30:55;;;;;;;0.32;0.10;;;;;;;;;;5059177;28;20096;-88
2023/12/25 14:33:23;;;;;;;1.23;0.10;;;;;;;;;;5060921;28;20123;-89
2023/12/25 14:35:52;;;;;;;0.05;0.05;;;;;;;;;;5046049;28;20497;-89
2023/12/25 14:38:22;;;;;;;0.10;0.10;;;;;;;;;;5044044;28;20072;-90
2023/12/25 14:40:49;;;;;;;0.00;0.00;;;;;;;;;;5042711;28;20128;-88
2023/12/25 14:43:16;;;;;;;0.10;0.00;;;;;;;;;;5058571;28;20075;-87
2023/12/25 14:45:44;;;;;;;0.00;0.00;;;;;;;;;;5064216;28;20048;-90
2023/12/25 14:48:11;;;;;;;1.50;1.40;;;;;;;;;;5038186;28;20100;-90